createdAt,value
2017-06-24T00:00:50.235Z,3.70
2017-06-24T00:03:17.826Z,3.73
2017-06-24T00:05:45.386Z,3.50
2017-06-24T00:08:13.714Z,4.03
2017-06-24T00:10:41.337Z,3.03
2017-06-24T00:13:09.867Z,3.70
2017-06-24T00:15:37.425Z,4.30
2017-06-24T00:18:05.002Z,3.83
2017-06-24T00:20:32.576Z,3.80
2017-06-24T00:23:00.958Z,3.60
2017-06-24T00:25:28.545Z,3.60
2017-06-24T00:27:56.967Z,3.30
2017-06-24T00:30:24.566Z,4.63
2017-06-24T00:32:52.145Z,4.07
2017-06-24T00:35:19.746Z,3.57
2017-06-24T00:37:47.313Z,3.37
2017-06-24T00:40:14.916Z,4.03
2017-06-24T00:42:42.500Z,3.10
2017-06-24T00:45:10.869Z,4.47
2017-06-24T00:47:38.439Z,3.37
2017-06-24T00:50:06.771Z,3.43
2017-06-24T00:52:34.365Z,3.37
2017-06-24T00:55:01.959Z,3.23
2017-06-24T00:57:29.544Z,3.93
2017-06-24T00:59:57.093Z,2.67
2017-06-24T01:02:24.678Z,3.63
2017-06-24T01:04:52.242Z,2.67
2017-06-24T01:07:19.871Z,3.90
2017-06-24T01:09:47.451Z,3.70
2017-06-24T01:12:15.062Z,3.47
2017-06-24T01:14:42.646Z,3.73
2017-06-24T01:17:10.995Z,3.70
2017-06-24T01:19:38.554Z,3.97
2017-06-24T01:22:06.148Z,3.70
2017-06-24T01:24:34.501Z,3.20
2017-06-24T01:27:02.062Z,4.00
2017-06-24T01:29:29.643Z,3.63
2017-06-24T01:31:57.200Z,3.30
2017-06-24T01:34:24.754Z,3.77
2017-06-24T01:36:52.433Z,3.00
2017-06-24T01:39:19.994Z,3.30
2017-06-24T01:41:47.578Z,3.23
2017-06-24T01:44:15.914Z,3.50
2017-06-24T01:46:43.492Z,3.93
2017-06-24T01:49:11.094Z,3.30
2017-06-24T01:51:38.871Z,3.00
2017-06-24T01:54:06.457Z,3.90
2017-06-24T01:56:34.026Z,3.40
2017-06-24T01:59:01.613Z,3.50
2017-06-24T02:01:29.938Z,3.53
2017-06-24T02:03:57.551Z,3.60
2017-06-24T02:06:25.910Z,4.10
2017-06-24T02:08:53.467Z,3.43
2017-06-24T02:11:21.070Z,3.20
2017-06-24T02:13:48.650Z,4.17
2017-06-24T02:16:16.209Z,3.50
2017-06-24T02:18:43.793Z,4.20
2017-06-24T02:21:11.367Z,3.53
2017-06-24T02:23:38.951Z,3.80
2017-06-24T02:26:06.515Z,3.33
2017-06-24T02:28:34.136Z,3.33
2017-06-24T02:31:01.707Z,3.50
2017-06-24T02:33:29.257Z,3.87
2017-06-24T02:35:56.839Z,4.00
2017-06-24T02:38:24.420Z,3.70
2017-06-24T02:40:51.997Z,3.27
2017-06-24T02:43:20.350Z,3.30
2017-06-24T02:45:47.940Z,3.57
2017-06-24T02:48:16.299Z,4.00
2017-06-24T02:50:43.870Z,4.00
2017-06-24T02:53:11.547Z,3.67
2017-06-24T02:55:39.168Z,3.30
2017-06-24T02:58:06.740Z,3.20
2017-06-24T03:00:34.343Z,3.80
2017-06-24T03:03:02.683Z,3.70
2017-06-24T03:05:30.260Z,3.73
2017-06-24T03:07:57.832Z,3.70
2017-06-24T03:10:25.411Z,3.37
2017-06-24T03:12:53.002Z,3.47
2017-06-24T03:15:20.582Z,4.23
2017-06-24T03:17:48.157Z,3.90
2017-06-24T03:20:15.723Z,3.40
2017-06-24T03:22:43.278Z,4.40
2017-06-24T03:25:10.923Z,3.80
2017-06-24T03:27:38.495Z,3.20
2017-06-24T03:30:06.094Z,3.80
2017-06-24T03:32:33.654Z,3.70
2017-06-24T03:35:01.973Z,3.40
2017-06-24T03:37:29.581Z,3.60
2017-06-24T03:39:57.146Z,4.20
2017-06-24T03:42:24.713Z,3.80
2017-06-24T03:44:53.066Z,4.00
2017-06-24T03:47:20.628Z,3.80
2017-06-24T03:49:48.199Z,3.83
2017-06-24T03:52:15.789Z,4.27
2017-06-24T03:54:44.135Z,4.10
2017-06-24T03:57:11.716Z,3.20
2017-06-24T03:59:39.289Z,4.27
2017-06-24T04:02:07.642Z,3.73
2017-06-24T04:04:35.194Z,3.73
2017-06-24T04:07:02.757Z,3.77
2017-06-24T04:09:30.348Z,3.00
2017-06-24T04:11:57.926Z,3.57
2017-06-24T04:14:26.275Z,3.93
2017-06-24T04:16:53.858Z,3.80
2017-06-24T04:19:22.369Z,3.10
2017-06-24T04:21:49.934Z,3.47
2017-06-24T04:24:17.501Z,3.27
2017-06-24T04:26:45.099Z,3.33
2017-06-24T04:29:12.658Z,3.20
2017-06-24T04:31:40.232Z,3.80
2017-06-24T04:34:08.618Z,2.63
2017-06-24T04:36:36.178Z,3.57
2017-06-24T04:39:04.551Z,3.30
2017-06-24T04:41:32.913Z,3.33
2017-06-24T04:44:00.537Z,3.23
2017-06-24T04:46:28.149Z,2.93
2017-06-24T04:48:55.753Z,3.73
2017-06-24T04:51:23.326Z,3.50
2017-06-24T04:53:50.906Z,2.73
2017-06-24T04:56:18.610Z,2.50
2017-06-24T04:58:46.174Z,3.03
2017-06-24T05:01:14.507Z,3.00
2017-06-24T05:03:42.086Z,3.10
2017-06-24T05:06:09.645Z,3.10
2017-06-24T05:08:37.205Z,2.83
2017-06-24T05:11:04.786Z,3.60
2017-06-24T05:13:32.346Z,3.27
2017-06-24T05:15:59.918Z,3.73
2017-06-24T05:18:28.262Z,3.13
2017-06-24T05:20:55.846Z,3.20
2017-06-24T05:23:23.455Z,2.53
2017-06-24T05:25:51.046Z,2.63
2017-06-24T05:28:18.632Z,2.10
2017-06-24T05:30:46.198Z,2.97
2017-06-24T05:33:13.765Z,2.37
2017-06-24T05:35:41.329Z,2.70
2017-06-24T05:38:09.673Z,3.20
2017-06-24T05:40:37.237Z,3.00
2017-06-24T05:43:04.798Z,3.07
2017-06-24T05:45:32.378Z,2.60
2017-06-24T05:47:59.968Z,2.60
2017-06-24T05:50:28.280Z,2.20
2017-06-24T05:52:55.877Z,2.30
2017-06-24T05:55:23.651Z,2.83
2017-06-24T05:57:51.214Z,3.10
2017-06-24T06:00:18.790Z,2.37
2017-06-24T06:02:46.334Z,2.33
2017-06-24T06:05:13.927Z,2.43
2017-06-24T06:07:42.262Z,2.83
2017-06-24T06:10:09.864Z,1.80
2017-06-24T06:12:37.475Z,2.70
2017-06-24T06:15:05.237Z,2.50
2017-06-24T06:17:32.823Z,2.83
2017-06-24T06:20:00.411Z,3.23
2017-06-24T06:22:28.755Z,2.60
2017-06-24T06:24:56.426Z,2.70
2017-06-24T06:27:24.006Z,2.10
2017-06-24T06:29:51.556Z,1.90
2017-06-24T06:32:19.129Z,2.00
2017-06-24T06:34:46.698Z,2.10
2017-06-24T06:37:15.125Z,2.40
2017-06-24T06:39:42.699Z,2.77
2017-06-24T06:42:10.296Z,2.30
2017-06-24T06:44:37.872Z,2.20
2017-06-24T06:47:06.211Z,2.67
2017-06-24T06:49:33.803Z,2.43
2017-06-24T06:52:01.378Z,2.50
2017-06-24T06:54:29.879Z,2.40
2017-06-24T06:56:57.667Z,2.40
2017-06-24T06:59:25.238Z,2.50
2017-06-24T07:01:53.206Z,2.43
2017-06-24T07:04:20.794Z,3.00
2017-06-24T07:06:48.429Z,2.60
2017-06-24T07:09:16.106Z,3.20
2017-06-24T07:11:43.725Z,3.30
2017-06-24T07:14:11.283Z,3.50
2017-06-24T07:16:38.988Z,2.93
2017-06-24T07:19:06.550Z,2.80
2017-06-24T07:21:34.163Z,3.20
2017-06-24T07:24:01.743Z,2.97
2017-06-24T07:26:29.312Z,2.87
2017-06-24T07:28:56.914Z,3.13
2017-06-24T07:31:25.251Z,2.70
2017-06-24T07:33:52.834Z,3.10
2017-06-24T07:36:20.445Z,2.40
2017-06-24T07:38:48.039Z,3.80
2017-06-24T07:41:15.830Z,3.10
2017-06-24T07:43:43.434Z,2.90
2017-06-24T07:46:10.997Z,2.67
2017-06-24T07:48:38.776Z,3.17
2017-06-24T07:51:06.350Z,2.80
2017-06-24T07:53:33.926Z,3.30
2017-06-24T07:56:01.491Z,2.60
2017-06-24T07:58:29.095Z,2.60
2017-06-24T08:00:57.458Z,3.53
2017-06-24T08:03:25.018Z,3.03
2017-06-24T08:05:52.616Z,2.93
2017-06-24T08:08:20.259Z,2.67
2017-06-24T08:10:47.885Z,2.67
2017-06-24T08:13:15.648Z,2.73
2017-06-24T08:15:43.230Z,2.90
2017-06-24T08:18:10.812Z,2.30
2017-06-24T08:20:38.409Z,2.67
2017-06-24T08:23:06.006Z,2.80
2017-06-24T08:25:33.570Z,2.20
2017-06-24T08:28:01.151Z,3.17
2017-06-24T08:30:28.742Z,2.77
2017-06-24T08:32:56.321Z,2.80
2017-06-24T08:35:23.894Z,2.60
2017-06-24T08:37:51.489Z,3.00
2017-06-24T08:40:19.096Z,3.20
2017-06-24T08:42:46.755Z,3.00
2017-06-24T08:45:14.346Z,2.80
2017-06-24T08:47:41.942Z,2.93
2017-06-24T08:50:09.534Z,2.77
2017-06-24T08:52:37.120Z,2.97
2017-06-24T08:55:04.696Z,3.03
2017-06-24T08:57:32.262Z,2.50
2017-06-24T08:59:59.829Z,2.70
2017-06-24T09:02:27.403Z,2.30
2017-06-24T09:04:54.986Z,2.20
2017-06-24T09:07:22.764Z,2.67
2017-06-24T09:09:50.313Z,2.80
2017-06-24T09:12:17.933Z,2.33
2017-06-24T09:14:45.504Z,2.70
2017-06-24T09:17:13.105Z,2.83
2017-06-24T09:19:40.674Z,3.13
2017-06-24T09:22:08.265Z,2.50
2017-06-24T09:24:36.603Z,2.83
2017-06-24T09:27:04.180Z,3.00
2017-06-24T09:29:31.939Z,2.40
2017-06-24T09:31:59.526Z,2.50
2017-06-24T09:34:27.891Z,2.07
2017-06-24T09:36:55.824Z,2.40
2017-06-24T09:39:23.436Z,2.97
2017-06-24T09:41:51.807Z,2.53
2017-06-24T09:44:19.466Z,2.60
2017-06-24T09:46:47.119Z,2.83
2017-06-24T09:49:14.679Z,3.17
2017-06-24T09:51:42.471Z,2.83
2017-06-24T09:54:11.065Z,2.77
2017-06-24T09:56:39.407Z,2.13
2017-06-24T09:59:06.982Z,2.90
2017-06-24T10:01:34.567Z,2.43
2017-06-24T10:04:02.939Z,2.03
2017-06-24T10:06:30.506Z,2.70
2017-06-24T10:08:58.559Z,3.37
2017-06-24T10:11:26.146Z,3.00
2017-06-24T10:13:54.481Z,2.67
2017-06-24T10:16:22.286Z,2.53
2017-06-24T10:18:50.642Z,2.63
2017-06-24T10:21:18.505Z,2.87
2017-06-24T10:23:46.399Z,2.50
2017-06-24T10:26:14.790Z,2.80
2017-06-24T10:28:43.201Z,3.13
2017-06-24T10:31:10.776Z,3.20
2017-06-24T10:33:38.358Z,2.27
2017-06-24T10:36:05.958Z,2.90
2017-06-24T10:38:33.579Z,2.90
2017-06-24T10:41:01.963Z,2.37
2017-06-24T10:43:30.322Z,3.37
2017-06-24T10:45:58.244Z,3.00
2017-06-24T10:48:26.861Z,2.67
2017-06-24T10:50:54.488Z,3.00
2017-06-24T10:53:22.176Z,3.93
2017-06-24T10:55:49.759Z,3.60
2017-06-24T10:58:17.359Z,3.10
2017-06-24T11:00:45.105Z,2.93
2017-06-24T11:03:12.727Z,3.17
2017-06-24T11:05:40.319Z,2.60
2017-06-24T11:08:07.865Z,2.80
2017-06-24T11:10:35.535Z,2.93
2017-06-24T11:13:03.120Z,3.60
2017-06-24T11:15:30.707Z,3.60
2017-06-24T11:17:58.397Z,3.40
2017-06-24T11:20:26.064Z,3.27
2017-06-24T11:22:53.668Z,3.20
2017-06-24T11:25:21.270Z,3.37
2017-06-24T11:27:48.849Z,3.00
2017-06-24T11:30:16.437Z,3.23
2017-06-24T11:32:44.007Z,3.20
2017-06-24T11:35:11.629Z,3.30
2017-06-24T11:37:39.209Z,2.90
2017-06-24T11:40:06.815Z,2.87
2017-06-24T11:42:34.431Z,4.33
2017-06-24T11:45:02.191Z,3.37
2017-06-24T11:47:29.814Z,3.23
2017-06-24T11:49:58.286Z,3.50
2017-06-24T11:52:26.214Z,3.57
2017-06-24T11:54:53.824Z,3.20
2017-06-24T11:57:21.399Z,3.57
2017-06-24T11:59:48.969Z,3.00
2017-06-24T12:02:16.619Z,3.93
2017-06-24T12:04:44.207Z,3.53
2017-06-24T12:07:11.845Z,3.30
2017-06-24T12:09:39.902Z,3.40
2017-06-24T12:12:07.702Z,4.07
2017-06-24T12:14:35.373Z,3.30
2017-06-24T12:17:02.962Z,5.00
2017-06-24T12:19:30.524Z,3.73
2017-06-24T12:21:58.184Z,3.70
2017-06-24T12:24:25.771Z,4.50
2017-06-24T12:26:53.337Z,4.10
2017-06-24T12:29:20.911Z,3.80
2017-06-24T12:31:49.274Z,5.80
2017-06-24T12:34:16.854Z,3.30
2017-06-24T12:36:45.180Z,3.63
2017-06-24T12:39:12.889Z,3.40
2017-06-24T12:41:41.353Z,3.77
2017-06-24T12:44:08.942Z,3.37
2017-06-24T12:46:36.514Z,4.40
2017-06-24T12:49:04.083Z,3.77
2017-06-24T12:51:31.674Z,3.30
2017-06-24T12:53:59.277Z,3.37
2017-06-24T12:56:27.359Z,2.83
2017-06-24T12:58:56.455Z,2.70
2017-06-24T13:01:25.305Z,2.67
2017-06-24T13:03:52.919Z,3.23
2017-06-24T13:06:21.262Z,3.27
2017-06-24T13:08:48.836Z,3.60
2017-06-24T13:11:16.414Z,3.77
2017-06-24T13:13:43.983Z,4.10
2017-06-24T13:16:11.588Z,3.50
2017-06-24T13:18:39.167Z,3.20
2017-06-24T13:21:06.733Z,2.93
2017-06-24T13:23:34.404Z,3.37
2017-06-24T13:26:01.991Z,4.43
2017-06-24T13:28:29.668Z,4.40
2017-06-24T13:30:58.017Z,7.63
2017-06-24T13:33:25.892Z,10.00
2017-06-24T13:35:53.579Z,7.17
2017-06-24T13:38:21.162Z,5.43
2017-06-24T13:40:49.590Z,4.20
2017-06-24T13:43:17.165Z,2.77
2017-06-24T13:45:44.729Z,3.17
2017-06-24T13:48:12.468Z,2.83
2017-06-24T13:50:40.066Z,2.40
2017-06-24T13:53:07.701Z,2.80
2017-06-24T13:55:35.270Z,2.30
2017-06-24T13:58:02.982Z,2.37
2017-06-24T14:00:30.543Z,2.13
2017-06-24T14:02:58.131Z,2.63
2017-06-24T14:05:25.794Z,2.07
2017-06-24T14:07:53.384Z,2.10
2017-06-24T14:10:21.033Z,2.33
2017-06-24T14:12:49.653Z,2.83
2017-06-24T14:15:17.262Z,2.40
2017-06-24T14:17:45.662Z,2.60
2017-06-24T14:20:13.281Z,2.30
2017-06-24T14:22:40.870Z,2.67
2017-06-24T14:25:09.218Z,2.20
2017-06-24T14:27:36.850Z,2.30
2017-06-24T14:30:04.514Z,2.17
2017-06-24T14:32:32.078Z,2.17
2017-06-24T14:34:59.658Z,2.20
2017-06-24T14:37:27.306Z,2.77
2017-06-24T14:39:54.864Z,2.47
2017-06-24T14:42:22.441Z,1.90
2017-06-24T14:44:50.065Z,2.70
2017-06-24T14:47:28.406Z,2.40
2017-06-24T14:49:56.023Z,2.30
2017-06-24T14:52:23.682Z,2.40
2017-06-24T14:54:51.258Z,2.53
2017-06-24T14:57:19.619Z,2.87
2017-06-24T14:59:47.213Z,3.10
2017-06-24T15:02:14.811Z,3.10
2017-06-24T15:04:42.390Z,3.10
2017-06-24T15:07:10.066Z,3.00
2017-06-24T15:09:37.653Z,3.13
2017-06-24T15:12:05.228Z,2.10
2017-06-24T15:14:32.798Z,2.70
2017-06-24T15:17:01.159Z,3.00
2017-06-24T15:19:28.778Z,3.73
2017-06-24T15:21:56.538Z,2.27
2017-06-24T15:24:24.189Z,2.93
2017-06-24T15:26:52.601Z,3.47
2017-06-24T15:29:20.391Z,3.40
2017-06-24T15:31:47.973Z,3.30
2017-06-24T15:34:15.747Z,3.13
2017-06-24T15:36:43.482Z,2.70
2017-06-24T15:39:11.058Z,3.10
2017-06-24T15:41:38.681Z,3.60
2017-06-24T15:44:06.354Z,2.90
2017-06-24T15:46:33.980Z,3.30
2017-06-24T15:49:12.509Z,3.13
2017-06-24T15:51:40.160Z,2.67
2017-06-24T15:54:08.525Z,3.07
2017-06-24T15:56:36.153Z,2.80
2017-06-24T15:59:03.789Z,3.10
2017-06-24T16:01:31.375Z,3.00
2017-06-24T16:03:58.939Z,2.50
2017-06-24T16:06:26.647Z,2.87
2017-06-24T16:08:54.233Z,3.10
2017-06-24T16:11:22.605Z,2.90
2017-06-24T16:13:50.207Z,2.80
2017-06-24T16:16:17.846Z,3.40
2017-06-24T16:18:46.255Z,3.30
2017-06-24T16:21:13.830Z,2.90
2017-06-24T16:23:41.419Z,4.07
2017-06-24T16:26:08.991Z,3.50
2017-06-24T16:28:36.546Z,3.67
2017-06-24T16:31:04.144Z,3.27
2017-06-24T16:33:31.702Z,3.90
2017-06-24T16:35:59.275Z,3.23
2017-06-24T16:38:26.906Z,4.20
2017-06-24T16:40:54.812Z,3.57
2017-06-24T16:43:22.415Z,4.50
2017-06-24T16:45:49.986Z,4.30
2017-06-24T16:48:17.535Z,4.60
2017-06-24T16:50:45.672Z,3.40
2017-06-24T16:53:13.350Z,3.80
2017-06-24T16:55:40.942Z,3.87
2017-06-24T16:58:08.519Z,4.97
2017-06-24T17:00:36.209Z,4.30
2017-06-24T17:03:03.886Z,3.70
2017-06-24T17:05:31.677Z,5.37
2017-06-24T17:07:59.473Z,4.70
2017-06-24T17:10:27.130Z,4.00
2017-06-24T17:12:54.763Z,3.83
2017-06-24T17:15:23.178Z,4.80
2017-06-24T17:17:50.755Z,4.87
2017-06-24T17:20:18.435Z,4.50
2017-06-24T17:22:46.040Z,4.40
2017-06-24T17:25:13.617Z,4.20
2017-06-24T17:27:41.183Z,3.70
2017-06-24T17:30:08.939Z,4.07
2017-06-24T17:32:36.550Z,4.90
2017-06-24T17:35:04.138Z,4.77
2017-06-24T17:37:32.478Z,4.00
2017-06-24T17:40:00.446Z,3.87
2017-06-24T17:42:28.139Z,5.07
2017-06-24T17:44:55.727Z,4.57
2017-06-24T17:47:23.581Z,4.80
2017-06-24T17:49:51.177Z,4.30
2017-06-24T17:52:18.737Z,4.20
2017-06-24T17:54:46.297Z,4.50
2017-06-24T17:57:14.067Z,4.40
2017-06-24T17:59:41.739Z,4.00
2017-06-24T18:02:09.319Z,3.83
2017-06-24T18:04:36.905Z,4.43
2017-06-24T18:07:04.503Z,4.63
2017-06-24T18:09:32.130Z,4.37
2017-06-24T18:12:00.480Z,3.90
2017-06-24T18:14:28.386Z,4.70
2017-06-24T18:16:56.770Z,4.20
2017-06-24T18:19:24.387Z,4.30
2017-06-24T18:21:52.810Z,7.67
2017-06-24T18:24:20.430Z,4.40
2017-06-24T18:26:47.987Z,3.93
2017-06-24T18:29:15.821Z,4.87
2017-06-24T18:31:44.160Z,4.07
2017-06-24T18:34:11.755Z,4.60
2017-06-24T18:36:39.366Z,4.33
2017-06-24T18:39:07.671Z,4.40
2017-06-24T18:41:35.323Z,5.03
2017-06-24T18:44:02.927Z,4.00
2017-06-24T18:46:30.498Z,3.80
2017-06-24T18:48:58.882Z,4.30
2017-06-24T18:51:26.491Z,4.60
2017-06-24T18:53:54.066Z,4.60
2017-06-24T18:56:22.410Z,4.10
2017-06-24T18:58:49.984Z,4.47
2017-06-24T19:01:17.566Z,4.67
2017-06-24T19:03:45.154Z,4.40
2017-06-24T19:06:13.648Z,4.90
2017-06-24T19:08:41.230Z,4.43
2017-06-24T19:11:08.927Z,4.93
2017-06-24T19:13:36.479Z,4.40
2017-06-24T19:16:04.095Z,4.53
2017-06-24T19:18:31.740Z,5.10
2017-06-24T19:20:59.313Z,5.80
2017-06-24T19:23:26.898Z,4.90
2017-06-24T19:25:55.331Z,4.57
2017-06-24T19:28:22.932Z,5.00
2017-06-24T19:30:50.654Z,3.97
2017-06-24T19:33:18.237Z,5.03
2017-06-24T19:35:45.831Z,5.37
2017-06-24T19:38:13.422Z,4.80
2017-06-24T19:40:41.090Z,4.80
2017-06-24T19:43:08.755Z,4.00
2017-06-24T19:45:37.287Z,4.20
2017-06-24T19:48:04.887Z,4.80
2017-06-24T19:50:32.636Z,4.67
2017-06-24T19:53:00.226Z,4.70
2017-06-24T19:55:27.811Z,4.57
2017-06-24T19:57:55.438Z,5.20
2017-06-24T20:00:23.006Z,4.93
2017-06-24T20:02:50.585Z,4.83
2017-06-24T20:05:18.156Z,4.30
2017-06-24T20:07:45.723Z,4.97
2017-06-24T20:10:13.300Z,5.27
2017-06-24T20:12:40.878Z,5.17
2017-06-24T20:15:08.486Z,4.83
2017-06-24T20:17:36.050Z,4.40
2017-06-24T20:20:03.886Z,4.30
2017-06-24T20:22:32.303Z,5.03
2017-06-24T20:24:59.923Z,5.30
2017-06-24T20:27:27.562Z,5.83
2017-06-24T20:29:55.148Z,6.03
2017-06-24T20:32:52.762Z,4.90
2017-06-24T20:35:20.339Z,4.80
2017-06-24T20:37:48.093Z,5.93
2017-06-24T20:40:15.801Z,6.10
2017-06-24T20:42:43.376Z,5.47
2017-06-24T20:45:11.722Z,6.10
2017-06-24T20:47:39.294Z,4.73
2017-06-24T20:50:07.511Z,5.27
2017-06-24T20:52:35.097Z,5.50
2017-06-24T20:55:02.835Z,5.63
2017-06-24T20:57:30.525Z,5.00
2017-06-24T20:59:58.406Z,5.63
2017-06-24T21:02:26.046Z,6.53
2017-06-24T21:04:53.610Z,7.17
2017-06-24T21:07:24.241Z,6.20
2017-06-24T21:09:51.874Z,6.40
2017-06-24T21:12:20.249Z,5.80
2017-06-24T21:14:47.839Z,6.37
2017-06-24T21:17:15.414Z,7.20
2017-06-24T21:19:43.375Z,6.97
2017-06-24T21:22:11.735Z,7.57
2017-06-24T21:24:39.349Z,5.30
2017-06-24T21:27:06.936Z,6.20
2017-06-24T21:29:34.517Z,5.37
2017-06-24T21:32:02.881Z,6.10
2017-06-24T21:34:30.461Z,6.40
2017-06-24T21:36:58.060Z,5.97
2017-06-24T21:39:25.627Z,6.40
2017-06-24T21:41:53.235Z,5.43
2017-06-24T21:44:20.799Z,6.63
2017-06-24T21:46:48.375Z,6.30
2017-06-24T21:49:15.986Z,6.77
2017-06-24T21:51:43.577Z,5.70
2017-06-24T21:54:11.157Z,6.70
2017-06-24T21:56:38.722Z,6.53
2017-06-24T21:59:06.334Z,8.57
2017-06-24T22:01:33.935Z,6.60
2017-06-24T22:04:01.506Z,7.60
2017-06-24T22:06:29.098Z,7.27
2017-06-24T22:08:57.017Z,6.33
2017-06-24T22:11:24.593Z,6.60
2017-06-24T22:13:52.155Z,6.13
2017-06-24T22:16:19.735Z,7.00
2017-06-24T22:18:47.359Z,6.50
2017-06-24T22:21:14.940Z,7.00
2017-06-24T22:23:42.498Z,7.40
2017-06-24T22:26:10.128Z,7.20
2017-06-24T22:28:37.677Z,7.70
2017-06-24T22:31:05.284Z,6.33
2017-06-24T22:33:32.914Z,7.57
2017-06-24T22:36:00.482Z,6.47
2017-06-24T22:38:28.061Z,6.90
2017-06-24T22:40:55.709Z,7.33
2017-06-24T22:43:23.276Z,5.90
2017-06-24T22:45:50.858Z,7.47
2017-06-24T22:48:18.443Z,6.60
2017-06-24T22:50:46.003Z,6.87
2017-06-24T22:53:13.594Z,7.20
2017-06-24T22:55:41.281Z,7.53
2017-06-24T22:58:08.843Z,6.40
2017-06-24T23:00:36.481Z,7.50
2017-06-24T23:03:04.275Z,8.00
2017-06-24T23:05:31.842Z,7.30
2017-06-24T23:07:59.450Z,6.77
2017-06-24T23:10:27.026Z,8.03
2017-06-24T23:12:54.622Z,6.53
2017-06-24T23:15:22.185Z,7.60
2017-06-24T23:17:49.745Z,7.70
2017-06-24T23:20:17.334Z,7.30
2017-06-24T23:22:44.906Z,8.10
2017-06-24T23:25:12.562Z,7.67
2017-06-24T23:27:40.168Z,6.13
2017-06-24T23:30:08.530Z,7.50
2017-06-24T23:32:36.155Z,6.80
2017-06-24T23:35:03.724Z,6.33
2017-06-24T23:37:31.277Z,5.80
2017-06-24T23:39:58.862Z,5.83
2017-06-24T23:42:26.429Z,6.60
2017-06-24T23:44:54.017Z,6.27
2017-06-24T23:47:22.409Z,5.50
2017-06-24T23:49:50.002Z,5.70
2017-06-24T23:52:17.595Z,5.10
2017-06-24T23:54:45.174Z,5.23
2017-06-24T23:57:12.763Z,4.97
2017-06-24T23:59:40.347Z,4.23
